Latest Weather Observations for Bankstown

IDN60901

Issued at 7:01 pm EST Monday 22 April 2019 (issued every 10 minutes, with the page automatically refreshed every 10 minutes)

About weather observations | Map of Sydney area stations | Latest observations for Sydney area | Other Formats
Station Details ID: 066137 Name: BANKSTOWN AIRPORT AWS Lat: -33.92 Lon: 150.99 Height: 6.5 m
Data from the previous 72 hours. | See also: Recent months at Bankstown
Date/Time
EST
Temp
°C
App
Temp
°C
Dew
Point
°C
Rel
Hum
%
Delta-T
°C
Wind Press
QNH
hPa
Press
MSL
hPa
Rain since
9am
mm
Dir  Spd
km/h
Gust
km/h
Spd
kts
Gust
kts
22/07:00pm 21.9 22.3 17.3 75 2.8 ENE 11 17 6 9 1023.5 1023.5 0.0
22/06:30pm 22.1 22.7 16.8 72 3.2 ENE 9 15 5 8 1023.1 1023.1 0.0
22/06:00pm 22.5 22.7 16.8 70 3.5 ENE 11 19 6 10 1022.8 1022.8 0.0
22/05:30pm 22.9 21.9 16.7 68 3.8 ENE 17 22 9 12 1022.1 1022.1 0.0
22/05:00pm 23.5 21.9 16.1 63 4.5 ENE 19 24 10 13 1021.5 1021.5 0.0
22/04:30pm 24.4 22.9 15.3 57 5.5 ENE 17 28 9 15 1021.4 1021.4 0.0
22/04:00pm 25.0 23.5 15.3 55 5.8 ENE 17 26 9 14 1021.2 1021.2 0.0
22/03:30pm 25.5 23.6 15.2 53 6.2 ENE 19 28 10 15 1021.0 1021.0 0.0
22/03:00pm 26.4 25.1 14.8 49 7.0 ENE 15 20 8 11 1020.9 1020.9 0.0
22/02:30pm 26.5 25.2 13.6 45 7.6 NE 13 22 7 12 1020.9 1020.9 0.0
22/02:00pm 26.4 27.2 15.8 52 6.5 NNE 6 11 3 6 1021.0 1021.0 0.0
22/01:30pm 26.3 27.2 16.0 53 6.3 N 6 13 3 7 1021.1 1021.1 0.0
22/01:00pm 25.3 25.4 15.6 55 5.9 E 9 13 5 7 1021.3 1021.3 0.0
22/12:30pm 25.3 25.1 15.6 55 5.9 NE 11 19 6 10 1021.4 1021.4 0.0
22/12:00pm 25.1 25.1 16.3 58 5.4 N 11 20 6 11 1021.8 1021.8 0.0
22/11:30am 24.5 24.9 16.2 60 5.1 N 9 13 5 7 1022.1 1022.1 0.0
22/11:00am 23.7 23.9 15.7 61 4.8 N 9 19 5 10 1022.4 1022.4 0.0
22/10:30am 23.5 23.6 16.5 65 4.3 N 11 15 6 8 1022.5 1022.5 0.0
22/10:00am 23.4 23.8 16.4 64 4.3 ENE 9 13 5 7 1022.8 1022.8 0.0
22/09:30am 22.2 22.7 15.5 66 4.0 NE 7 11 4 6 1022.8 1022.8 0.0
22/09:00am 21.6 22.7 17.0 75 2.8 WNW 7 9 4 5 1022.9 1022.9 0.0
22/08:30am 20.1 21.8 17.1 83 1.8 SSE 4 7 2 4 1022.9 1022.9 0.0
22/08:00am 18.8 21.3 17.3 91 0.9 CALM 0 0 0 0 1022.8 1022.8 0.0
22/07:30am 17.4 19.6 16.6 95 0.5 CALM 0 0 0 0 1022.7 1022.7 0.0
22/07:00am 16.1 17.8 15.1 94 0.6 CALM 0 0 0 0 1022.5 1022.5 0.0
22/06:30am 16.4 18.2 15.6 95 0.5 CALM 0 6 0 3 1021.8 1021.8 0.0
22/06:00am 16.5 18.4 15.7 95 0.5 CALM 0 0 0 0 1021.6 1021.6 0.0
22/05:30am 16.6 18.5 15.8 95 0.5 CALM 0 0 0 0 1021.3 1021.3 0.0
22/05:00am 16.7 18.7 15.9 95 0.5 CALM 0 0 0 0 1021.2 1021.2 0.0
22/04:43am 16.3 16.9 15.3 94 0.6 SW 6 7 3 4 1021.2 1021.2 0.0
22/04:30am 16.7 17.8 15.7 94 0.6 SW 4 6 2 3 1021.3 1021.3 0.0
22/04:00am 17.1 18.6 15.6 91 0.9 ENE 2 7 1 4 1021.0 1021.0 0.0
22/03:30am 17.5 19.7 16.5 94 0.6 CALM 0 0 0 0 1021.1 1021.1 0.0
22/03:00am 17.0 19.0 16.0 94 0.6 CALM 0 0 0 0 1021.4 1021.4 0.0
22/02:30am 17.1 19.1 16.0 93 0.6 CALM 0 0 0 0 1021.6 1021.6 0.0
22/02:00am 17.4 19.5 16.3 93 0.7 CALM 0 0 0 0 1021.8 1021.8 0.0
22/01:30am 17.3 19.3 16.0 92 0.8 CALM 0 0 0 0 1022.0 1022.0 0.0
22/01:00am 17.7 19.9 16.4 92 0.8 CALM 0 0 0 0 1022.0 1022.0 0.0
22/12:30am 18.2 20.6 17.0 93 0.7 CALM 0 0 0 0 1022.1 1022.1 0.0
22/12:00am 18.2 20.6 17.0 93 0.7 CALM 0 0 0 0 1022.0 1022.0 0.0
 
Date/Time
EST
Temp
°C
App
Temp
°C
Dew
Point
°C
Rel
Hum
%
Delta-T
°C
Wind Press
QNH
hPa
Press
MSL
hPa
Rain since
9am
mm
Dir  Spd
km/h
Gust
km/h
Spd
kts
Gust
kts
21/11:30pm 18.0 20.4 16.9 93 0.7 CALM 0 0 0 0 1022.1 1022.1 0.0
21/11:00pm 17.9 20.1 16.4 91 0.9 CALM 0 0 0 0 1022.1 1022.1 0.0
21/10:30pm 18.3 20.5 16.5 89 1.1 CALM 0 0 0 0 1022.3 1022.3 0.0
21/10:00pm 18.6 20.9 16.8 89 1.1 CALM 0 0 0 0 1022.3 1022.3 0.0
21/09:30pm 18.9 21.3 17.0 89 1.1 CALM 0 0 0 0 1022.5 1022.5 0.0
21/09:00pm 18.8 21.0 16.6 87 1.3 CALM 0 0 0 0 1022.5 1022.5 0.0
21/08:30pm 21.1 22.6 17.7 81 2.1 E 6 9 3 5 1022.3 1022.3 0.0
21/08:00pm 20.7 23.1 17.1 80 2.2 CALM 0 0 0 0 1022.5 1022.5 0.0
21/07:30pm 21.6 22.8 17.4 77 2.6 NE 7 15 4 8 1022.2 1022.2 0.0
21/07:00pm 21.9 22.0 17.5 76 2.7 NE 13 19 7 10 1022.1 1022.1 0.0
21/06:30pm 22.1 22.2 17.5 75 2.8 NE 13 20 7 11 1022.0 1022.0 0.0
21/06:00pm 22.5 22.1 17.2 72 3.3 NE 15 20 8 11 1022.0 1022.0 0.0
21/05:30pm 22.8 22.3 16.8 69 3.7 NE 15 22 8 12 1021.9 1021.9 0.0
21/05:00pm 23.3 22.9 17.1 68 3.8 NE 15 24 8 13 1021.7 1021.7 0.0
21/04:30pm 23.8 22.6 17.1 66 4.1 ENE 19 26 10 14 1021.6 1021.6 0.0
21/04:00pm 24.2 23.0 17.0 64 4.4 ENE 19 22 10 12 1021.4 1021.4 0.0
21/03:30pm 24.6 23.6 16.6 61 4.9 ENE 17 24 9 13 1021.3 1021.3 0.0
21/03:00pm 25.5 24.5 16.6 58 5.5 ENE 17 24 9 13 1021.3 1021.3 0.0
21/02:30pm 26.1 25.2 16.9 57 5.7 ENE 17 26 9 14 1021.5 1021.5 0.0
21/02:00pm 26.2 25.4 17.0 57 5.7 ENE 17 22 9 12 1021.6 1021.6 0.0
21/01:30pm 26.2 25.2 15.6 52 6.4 E 15 20 8 11 1021.8 1021.8 0.0
21/01:00pm 26.9 26.7 15.6 50 6.9 ENE 11 19 6 10 1022.1 1022.1 0.0
21/12:30pm 26.2 27.6 17.8 60 5.3 ENE 7 15 4 8 1022.6 1022.6 0.0
21/12:00pm 24.9 26.3 17.4 63 4.7 NE 6 9 3 5 1023.5 1023.5 0.0
21/11:30am 23.4 24.8 17.8 71 3.5 W 7 13 4 7 1024.2 1024.2 0.0
21/11:00am 22.4 24.1 18.4 78 2.5 WSW 7 11 4 6 1024.6 1024.6 0.0
21/10:58am 22.3 23.6 18.5 79 2.4 WSW 9 13 5 7 1024.7 1024.7 0.0
21/10:30am 20.3 22.1 18.2 88 1.3 W 6 9 3 5 1024.8 1024.8 0.0
21/10:00am 19.4 21.4 18.7 96 0.4 W 6 9 3 5 1024.9 1024.9 0.0
21/09:59am 19.6 21.7 18.9 96 0.4 W 6 9 3 5 1024.9 1024.9 0.0
21/09:30am 18.9 21.9 18.4 97 0.3 CALM 0 0 0 0 1025.0 1025.0 0.0
21/09:00am 18.5 21.3 18.0 97 0.3 CALM 0 0 0 0 1025.1 1025.1 0.0
21/08:30am 18.2 20.5 17.7 97 0.3 WSW 2 6 1 3 1025.2 1025.2 0.0
21/08:00am 17.5 18.8 17.0 97 0.3 W 6 7 3 4 1025.2 1025.2 0.0
21/07:30am 17.0 19.2 16.5 97 0.3 CALM 0 0 0 0 1024.8 1024.8 0.0
21/07:00am 16.1 17.9 15.6 97 0.3 CALM 0 0 0 0 1024.5 1024.5 0.0
21/06:30am 15.7 17.4 15.1 96 0.3 CALM 0 0 0 0 1024.1 1024.1 0.0
21/06:00am 15.2 16.6 14.4 95 0.5 CALM 0 0 0 0 1023.9 1023.9 0.0
21/05:58am 15.1 16.5 14.3 95 0.5 CALM 0 0 0 0 1023.9 1023.9 0.0
21/05:30am 15.2 16.6 14.4 95 0.5 CALM 0 0 0 0 1023.7 1023.7 0.0
21/05:28am 15.2 16.5 14.2 94 0.6 CALM 0 0 0 0 1023.6 1023.6 0.0
21/05:27am 15.2 16.5 14.2 94 0.6 CALM 0 0 0 0 1023.6 1023.6 0.0
21/05:05am 15.4 16.4 14.4 94 0.6 E 2 6 1 3 1023.6 1023.6 0.0
21/05:00am 15.9 16.4 15.1 95 0.5 E 6 6 3 3 1023.5 1023.5 0.0
21/04:46am 16.4 17.9 15.8 96 0.4 E 2 7 1 4 1023.5 1023.5 0.0
21/04:30am 15.8 17.4 15.0 95 0.5 CALM 0 0 0 0 1023.4 1023.4 0.0
21/04:05am 15.7 17.2 14.7 94 0.6 CALM 0 0 0 0 1023.4 1023.4 0.0
21/04:00am 15.5 17.0 14.7 95 0.5 CALM 0 0 0 0 1023.4 1023.4 0.0
21/03:32am 16.4 18.2 15.6 95 0.5 CALM 0 0 0 0 1023.2 1023.2 0.0
21/03:30am 16.5 18.4 15.7 95 0.5 CALM 0 0 0 0 1023.2 1023.2 0.0
21/03:00am 16.2 17.9 15.2 94 0.6 CALM 0 0 0 0 1023.1 1023.1 0.0
21/02:30am 16.8 18.7 15.8 94 0.6 CALM 0 0 0 0 1023.3 1023.3 0.0
21/02:27am 16.8 18.7 15.8 94 0.6 CALM 0 0 0 0 1023.3 1023.3 0.0
21/02:00am 17.0 19.0 15.9 93 0.6 CALM 0 0 0 0 1023.5 1023.5 0.0
21/01:30am 17.2 19.2 16.1 93 0.7 CALM 0 0 0 0 1023.8 1023.8 0.0
21/01:00am 17.6 19.8 16.5 93 0.7 CALM 0 0 0 0 1024.2 1024.2 0.0
21/12:30am 17.9 20.3 16.9 94 0.6 CALM 0 0 0 0 1024.5 1024.5 0.0
21/12:00am 17.9 20.3 16.9 94 0.6 CALM 0 0 0 0 1024.5 1024.5 0.0
 
Date/Time
EST
Temp
°C
App
Temp
°C
Dew
Point
°C
Rel
Hum
%
Delta-T
°C
Wind Press
QNH
hPa
Press
MSL
hPa
Rain since
9am
mm
Dir  Spd
km/h
Gust
km/h
Spd
kts
Gust
kts
20/11:30pm 17.7 20.0 16.7 94 0.6 CALM 0 0 0 0 1024.6 1024.6 0.0
20/11:07pm 17.7 19.9 16.6 93 0.7 CALM 0 0 0 0 1024.8 1024.8 0.0
20/11:00pm 17.7 19.9 16.6 93 0.7 CALM 0 0 0 0 1024.8 1024.8 0.0
20/10:48pm 17.2 19.2 15.9 92 0.8 CALM 0 0 0 0 1024.9 1024.9 0.0
20/10:30pm 17.6 19.7 16.3 92 0.8 CALM 0 0 0 0 1025.0 1025.0 0.0
20/10:00pm 17.7 19.9 16.6 93 0.7 CALM 0 0 0 0 1025.1 1025.1 0.0
20/09:30pm 18.5 21.0 17.3 93 0.7 CALM 0 0 0 0 1025.0 1025.0 0.0
20/09:21pm 18.4 20.9 17.2 93 0.7 CALM 0 0 0 0 1025.0 1025.0 0.0
20/09:03pm 18.2 20.6 16.9 92 0.8 CALM 0 0 0 0 1025.1 1025.1 0.0
20/09:00pm 18.3 20.7 17.0 92 0.8 CALM 0 0 0 0 1025.0 1025.0 0.0
20/08:30pm 18.3 20.5 16.5 89 1.1 CALM 0 0 0 0 1025.0 1025.0 0.0
20/08:00pm 19.1 21.4 16.7 86 1.4 CALM 0 0 0 0 1024.8 1024.8 0.0
20/07:30pm 20.9 23.6 17.7 82 2.0 CALM 0 0 0 0 1024.6 1024.6 0.0
20/07:00pm 21.3 22.3 17.7 80 2.2 E 9 13 5 7 1024.5 1024.5 0.0
20/06:30pm 21.8 22.8 17.8 78 2.5 ENE 9 13 5 7 1024.3 1024.3 0.0
20/06:00pm 22.1 22.7 17.7 76 2.7 ENE 11 15 6 8 1023.9 1023.9 0.0
20/05:30pm 22.4 22.7 17.8 75 2.9 ENE 13 20 7 11 1023.7 1023.7 0.0
20/05:00pm 23.1 22.8 17.3 70 3.6 ENE 15 24 8 13 1023.6 1023.6 0.0
20/04:30pm 24.0 23.5 16.8 64 4.4 ENE 15 24 8 13 1023.5 1023.5 0.0
20/04:00pm 24.4 23.7 16.4 61 4.9 ENE 15 20 8 11 1023.4 1023.4 0.0
20/03:30pm 24.5 23.9 16.7 61 4.8 ENE 15 20 8 11 1023.5 1023.5 0.0
20/03:00pm 24.9 24.4 16.9 61 4.9 E 15 22 8 12 1023.7 1023.7 0.0
20/02:30pm 24.3 23.5 17.1 64 4.5 ESE 17 24 9 13 1023.8 1023.8 0.0
20/02:00pm 24.5 23.4 17.2 63 4.5 ESE 19 22 10 12 1024.0 1024.0 0.0
20/01:30pm 24.5 24.8 17.0 63 4.6 ESE 11 15 6 8 1024.1 1024.1 0.0
20/01:00pm 25.1 26.9 17.3 62 4.8 ENE 4 9 2 5 1024.5 1024.5 0.0
20/12:30pm 24.7 25.3 16.9 62 4.8 N 9 17 5 9 1025.1 1025.1 0.0
20/12:00pm 24.6 26.0 17.3 64 4.5 ENE 6 13 3 7 1025.7 1025.7 0.0
20/11:30am 23.1 24.0 16.6 67 4.0 S 7 11 4 6 1026.2 1026.2 0.0
20/11:00am 22.8 23.6 16.4 67 3.9 NNW 7 11 4 6 1026.6 1026.6 0.0
20/10:30am 23.1 23.9 16.4 66 4.1 NW 7 11 4 6 1026.8 1026.8 0.0
20/10:00am 21.7 22.3 15.8 69 3.5 WNW 7 9 4 5 1027.0 1027.0 0.0
20/09:30am 21.5 23.3 16.5 73 3.0 NW 2 7 1 4 1027.1 1027.1 0.0
20/09:00am 19.7 20.9 16.0 79 2.2 NNW 4 7 2 4 1027.2 1027.2 0.0
20/08:30am 18.6 20.6 16.0 85 1.5 CALM 0 0 0 0 1027.4 1027.4 0.0
20/08:00am 17.2 19.1 15.7 91 0.9 CALM 0 0 0 0 1027.3 1027.3 0.0
20/07:30am 15.8 17.4 15.0 95 0.5 CALM 0 0 0 0 1027.0 1027.0 0.0
20/07:00am 14.6 15.8 13.8 95 0.4 CALM 0 0 0 0 1026.7 1026.7 0.0
20/06:30am 14.1 15.1 13.3 95 0.4 CALM 0 0 0 0 1026.4 1026.4 0.0
20/06:00am 14.8 16.1 14.2 96 0.3 CALM 0 7 0 4 1026.4 1026.4 0.0
20/05:40am 14.4 15.5 13.6 95 0.4 CALM 0 0 0 0 1026.2 1026.2 0.0
20/05:30am 14.1 15.1 13.3 95 0.4 CALM 0 0 0 0 1026.1 1026.1 0.0
20/05:20am 13.9 14.9 13.1 95 0.4 CALM 0 0 0 0 1026.1 1026.1 0.0
20/05:00am 14.3 15.4 13.5 95 0.4 CALM 0 0 0 0 1026.1 1026.1 0.0
20/04:30am 14.2 15.3 13.4 95 0.4 CALM 0 0 0 0 1026.0 1026.0 0.0
20/04:00am 15.0 16.3 14.2 95 0.4 CALM 0 0 0 0 1026.0 1026.0 0.0
20/03:45am 15.0 16.3 14.2 95 0.5 CALM 0 0 0 0 1025.9 1025.9 0.0
20/03:30am 14.8 16.1 14.0 95 0.4 CALM 0 0 0 0 1026.0 1026.0 0.0
20/03:00am 14.7 15.9 13.9 95 0.4 CALM 0 0 0 0 1025.8 1025.8 0.0
20/02:44am 14.7 15.9 13.7 94 0.6 CALM 0 0 0 0 1025.9 1025.9 0.0
20/02:30am 15.3 16.7 14.5 95 0.5 CALM 0 0 0 0 1026.0 1026.0 0.0
20/02:00am 15.1 16.5 14.3 95 0.5 CALM 0 0 0 0 1026.2 1026.2 0.0
20/01:30am 15.8 17.4 15.0 95 0.5 CALM 0 0 0 0 1026.3 1026.3 0.0
20/01:29am 15.8 17.4 15.0 95 0.5 CALM 0 0 0 0 1026.4 1026.4 0.0
20/01:00am 15.3 16.7 14.3 94 0.6 CALM 0 0 0 0 1026.6 1026.6 0.0
20/12:38am 15.2 16.4 13.9 92 0.7 CALM 0 0 0 0 1026.7 1026.7 0.0
20/12:30am 15.7 17.2 14.6 93 0.6 CALM 0 0 0 0 1026.7 1026.7 0.0
20/12:00am 16.2 17.9 15.1 93 0.6 CALM 0 0 0 0 1026.8 1026.8 0.0
 
Date/Time
EST
Temp
°C
App
Temp
°C
Dew
Point
°C
Rel
Hum
%
Delta-T
°C
Wind Press
QNH
hPa
Press
MSL
hPa
Rain since
9am
mm
Dir  Spd
km/h
Gust
km/h
Spd
kts
Gust
kts
19/11:30pm 16.0 17.5 14.7 92 0.7 CALM 0 0 0 0 1027.1 1027.1 0.0
19/11:00pm 17.0 18.9 15.7 92 0.8 CALM 0 0 0 0 1027.3 1027.3 0.0
19/10:30pm 16.6 18.3 15.1 91 0.9 CALM 0 0 0 0 1027.3 1027.3 0.0
19/10:00pm 17.5 19.5 16.0 91 0.9 CALM 0 0 0 0 1027.4 1027.4 0.0
19/09:30pm 16.7 18.4 15.2 91 0.9 CALM 0 0 0 0 1027.3 1027.3 0.0
19/09:00pm 17.3 19.0 15.3 88 1.2 CALM 0 0 0 0 1027.1 1027.1 0.0
19/08:30pm 17.9 19.7 15.5 86 1.4 CALM 0 0 0 0 1026.9 1026.9 0.0
19/08:00pm 18.4 20.1 15.3 82 1.8 CALM 0 0 0 0 1026.7 1026.7 0.0
19/07:30pm 18.0 19.4 14.3 79 2.1 CALM 0 0 0 0 1026.6 1026.6 0.0

Latest Capital City Observations: Canberra | Sydney | Melbourne | Brisbane | Adelaide | Perth | Hobart | Darwin

Other formats

Comma delimited format used in spreadsheet applications
http://www.bom.gov.au/fwo/IDN60901/IDN60901.94765.axf

JavaScript Object Notation format (JSON) in row-major order
http://www.bom.gov.au/fwo/IDN60901/IDN60901.94765.json

Data quality

Most of these data are generated automatically and are frequently updated. Quality checks on data are not normally performed. It is possible for incorrect values to appear. Refer to information at About Latest Weather Observations and please check the disclaimer before using these data.